Time,TemperatureF,DewpointF,PressureIn,WindDirection,WindDirectionDegrees,WindSpeedMPH,WindSpeedGustMPH,Humidity,HourlyPrecipIn,Conditions,Clouds,dailyrainin,SoftwareType,DateUTC
2013-01-09 00:02:00,50.0,49.0,30.02,West,268,5.0,14.0,95,0.05,,,0.31,,2013-01-09 08:02:00,
2013-01-09 00:11:00,50.0,49.0,30.02,West,268,5.0,14.0,95,0.05,,,0.31,,2013-01-09 08:11:00,
2013-01-09 00:22:00,50.0,49.0,30.02,West,268,5.0,14.0,95,0.05,,,0.31,,2013-01-09 08:22:00,
2013-01-09 00:32:00,50.0,49.0,30.01,SW,236,5.0,16.0,95,0.04,,,0.31,,2013-01-09 08:32:00,
2013-01-09 00:42:00,50.0,49.0,30.01,SW,236,5.0,16.0,95,0.04,,,0.31,,2013-01-09 08:42:00,
2013-01-09 00:53:00,49.0,48.0,30.01,South,173,5.0,15.0,95,0.01,,,0.31,,2013-01-09 08:53:00,
2013-01-09 01:02:00,49.0,48.0,29.99,West,269,3.0,20.0,95,0.01,,,0.31,,2013-01-09 09:02:00,
2013-01-09 01:11:00,49.0,48.0,29.99,West,269,3.0,20.0,95,0.01,,,0.31,,2013-01-09 09:11:00,
2013-01-09 01:22:00,50.0,48.0,29.99,SW,221,8.0,17.0,94,0.01,,,0.31,,2013-01-09 09:22:00,
2013-01-09 01:32:00,50.0,48.0,30.00,SE,144,7.0,18.0,94,0.01,,,0.31,,2013-01-09 09:32:00,
2013-01-09 01:42:00,50.0,48.0,30.00,SE,144,7.0,18.0,94,0.01,,,0.31,,2013-01-09 09:42:00,
2013-01-09 01:53:00,50.0,48.0,29.98,SE,134,6.0,18.0,93,0.01,,,0.31,,2013-01-09 09:53:00,
2013-01-09 02:01:00,50.0,48.0,29.98,SE,134,6.0,18.0,93,0.01,,,0.31,,2013-01-09 10:01:00,
2013-01-09 02:11:00,50.0,48.0,29.98,SE,134,6.0,18.0,93,0.01,,,0.31,,2013-01-09 10:11:00,
2013-01-09 02:22:00,50.0,48.0,29.96,ESE,113,6.0,24.0,92,0.00,,,0.30,,2013-01-09 10:22:00,
2013-01-09 02:32:00,50.0,48.0,29.96,ESE,113,6.0,24.0,92,0.00,,,0.30,,2013-01-09 10:32:00,
2013-01-09 02:42:00,50.0,48.0,29.96,ESE,113,6.0,24.0,92,0.00,,,0.30,,2013-01-09 10:42:00,
2013-01-09 02:52:00,50.0,48.0,29.93,SSW,200,10.0,20.0,92,0.00,,,0.30,,2013-01-09 10:52:00,
2013-01-09 03:02:00,51.0,48.0,29.92,SSE,167,8.0,20.0,91,0.00,,,0.30,,2013-01-09 11:02:00,
2013-01-09 03:12:00,51.0,48.0,29.92,SSE,167,8.0,20.0,91,0.00,,,0.30,,2013-01-09 11:12:00,
2013-01-09 03:22:00,51.0,48.0,29.91,SSW,196,10.0,25.0,90,0.00,,,0.30,,2013-01-09 11:22:00,
2013-01-09 03:32:00,51.0,48.0,29.90,ESE,112,9.0,24.0,89,0.00,,,0.30,,2013-01-09 11:32:00,
2013-01-09 03:42:00,51.0,48.0,29.90,ESE,112,9.0,24.0,89,0.00,,,0.30,,2013-01-09 11:42:00,
2013-01-09 03:53:00,51.0,48.0,29.89,WSW,249,5.0,21.0,89,0.00,,,0.30,,2013-01-09 11:53:00,
2013-01-09 04:02:00,51.0,48.0,29.88,ESE,117,7.0,18.0,88,0.00,,,0.30,,2013-01-09 12:02:00,
2013-01-09 04:12:00,51.0,48.0,29.88,ESE,117,7.0,18.0,88,0.00,,,0.30,,2013-01-09 12:12:00,
2013-01-09 04:22:00,51.0,48.0,29.89,SW,228,11.0,27.0,88,0.00,,,0.28,,2013-01-09 12:22:00,
2013-01-09 04:32:00,51.0,48.0,29.89,SW,228,11.0,27.0,88,0.00,,,0.28,,2013-01-09 12:32:00,
2013-01-09 04:42:00,51.0,48.0,29.89,SW,228,11.0,27.0,88,0.00,,,0.28,,2013-01-09 12:42:00,
2013-01-09 04:52:00,51.0,48.0,29.84,SW,215,6.0,22.0,88,0.00,,,0.28,,2013-01-09 12:52:00,
2013-01-09 05:02:00,51.0,48.0,29.84,SW,215,6.0,22.0,88,0.00,,,0.28,,2013-01-09 13:02:00,
2013-01-09 05:12:00,51.0,48.0,29.84,SW,215,6.0,22.0,88,0.00,,,0.28,,2013-01-09 13:12:00,
2013-01-09 05:22:00,50.0,47.0,29.87,WNW,286,9.0,22.0,90,0.07,,,0.30,,2013-01-09 13:22:00,
2013-01-09 05:32:00,47.0,44.0,29.87,WNW,290,9.0,19.0,90,0.17,,,0.40,,2013-01-09 13:32:00,
2013-01-09 05:43:00,47.0,44.0,29.87,WNW,290,9.0,19.0,90,0.17,,,0.40,,2013-01-09 13:43:00,
2013-01-09 05:52:00,46.0,44.0,29.88,West,277,6.0,13.0,91,0.20,,,0.43,,2013-01-09 13:52:00,
2013-01-09 06:02:00,46.0,44.0,29.88,West,274,3.0,9.0,92,0.21,,,0.46,,2013-01-09 14:02:00,
2013-01-09 06:12:00,46.0,44.0,29.88,West,274,3.0,9.0,92,0.21,,,0.46,,2013-01-09 14:12:00,
2013-01-09 06:22:00,46.0,44.0,29.88,West,281,4.0,7.0,93,0.18,,,0.42,,2013-01-09 14:22:00,
2013-01-09 06:32:00,46.0,44.0,29.88,West,281,4.0,7.0,93,0.18,,,0.42,,2013-01-09 14:32:00,
2013-01-09 06:42:00,46.0,44.0,29.88,West,281,4.0,7.0,93,0.18,,,0.42,,2013-01-09 14:42:00,
2013-01-09 06:53:00,46.0,44.0,29.89,WNW,288,8.0,12.0,93,0.09,,,0.47,,2013-01-09 14:53:00,
2013-01-09 07:02:00,45.0,43.0,29.90,WNW,284,7.0,11.0,93,0.08,,,0.48,,2013-01-09 15:02:00,
2013-01-09 07:12:00,45.0,43.0,29.90,WNW,284,7.0,11.0,93,0.08,,,0.48,,2013-01-09 15:12:00,
2013-01-09 07:22:00,44.0,42.0,29.91,WNW,283,6.0,13.0,93,0.07,,,0.47,,2013-01-09 15:22:00,
2013-01-09 07:33:00,44.0,42.0,29.92,WNW,286,3.0,9.0,93,0.06,,,0.48,,2013-01-09 15:33:00,
2013-01-09 07:42:00,44.0,42.0,29.92,WNW,286,3.0,9.0,93,0.06,,,0.48,,2013-01-09 15:42:00,
2013-01-09 07:52:00,44.0,42.0,29.92,WNW,283,4.0,8.0,93,0.04,,,0.49,,2013-01-09 15:52:00,
2013-01-09 08:02:00,44.0,42.0,29.93,WNW,284,2.0,5.0,94,0.03,,,0.49,,2013-01-09 16:02:00,
2013-01-09 08:12:00,44.0,42.0,29.93,WNW,284,2.0,5.0,94,0.03,,,0.49,,2013-01-09 16:12:00,
2013-01-09 08:22:00,44.0,42.0,29.93,West,271,3.0,7.0,94,0.03,,,0.48,,2013-01-09 16:22:00,
2013-01-09 08:33:00,45.0,43.0,29.93,WSW,257,6.0,10.0,94,0.04,,,0.50,,2013-01-09 16:33:00,
2013-01-09 08:42:00,45.0,43.0,29.93,WSW,257,6.0,10.0,94,0.04,,,0.50,,2013-01-09 16:42:00,
2013-01-09 08:52:00,45.0,43.0,29.94,West,265,8.0,14.0,94,0.03,,,0.50,,2013-01-09 16:52:00,
2013-01-09 09:02:00,44.0,42.0,29.96,WNW,283,10.0,15.0,94,0.05,,,0.52,,2013-01-09 17:02:00,
2013-01-09 09:12:00,44.0,42.0,29.96,WNW,283,10.0,15.0,94,0.05,,,0.52,,2013-01-09 17:12:00,
2013-01-09 09:22:00,44.0,42.0,29.96,WNW,283,10.0,15.0,94,0.05,,,0.52,,2013-01-09 17:22:00,
2013-01-09 09:32:00,44.0,42.0,29.97,West,271,13.0,24.0,94,0.04,,,0.52,,2013-01-09 17:32:00,
2013-01-09 09:42:00,44.0,42.0,29.97,West,271,13.0,24.0,94,0.04,,,0.52,,2013-01-09 17:42:00,
2013-01-09 09:52:00,43.0,41.0,29.98,West,271,12.0,19.0,93,0.03,,,0.53,,2013-01-09 17:52:00,
2013-01-09 10:02:00,44.0,42.0,29.99,West,263,13.0,21.0,92,0.03,,,0.53,,2013-01-09 18:02:00,
2013-01-09 10:12:00,44.0,42.0,29.99,West,263,13.0,21.0,92,0.03,,,0.53,,2013-01-09 18:12:00,
2013-01-09 10:23:00,43.0,41.0,30.00,West,279,9.0,16.0,91,0.01,,,0.53,,2013-01-09 18:23:00,
2013-01-09 10:33:00,44.0,41.0,30.00,West,280,5.0,14.0,90,0.01,,,0.52,,2013-01-09 18:33:00,
2013-01-09 10:43:00,44.0,41.0,30.00,West,280,5.0,14.0,90,0.01,,,0.52,,2013-01-09 18:43:00,
2013-01-09 10:52:00,44.0,41.0,30.00,WNW,302,4.0,12.0,89,0.01,,,0.52,,2013-01-09 18:52:00,
2013-01-09 11:02:00,44.0,41.0,30.01,West,267,10.0,19.0,88,0.01,,,0.52,,2013-01-09 19:02:00,
2013-01-09 11:12:00,44.0,41.0,30.01,West,267,10.0,19.0,88,0.01,,,0.52,,2013-01-09 19:12:00,
2013-01-09 11:22:00,43.0,39.0,30.01,West,275,4.0,12.0,87,0.01,,,0.52,,2013-01-09 19:22:00,
2013-01-09 11:33:00,44.0,41.0,30.01,West,271,3.0,6.0,88,0.00,,,0.50,,2013-01-09 19:33:00,
2013-01-09 11:43:00,44.0,41.0,30.01,West,271,3.0,6.0,88,0.00,,,0.50,,2013-01-09 19:43:00,
2013-01-09 11:52:00,45.0,41.0,30.01,West,281,4.0,7.0,86,0.00,,,0.50,,2013-01-09 19:52:00,
2013-01-09 12:02:00,46.0,42.0,30.00,West,263,2.0,4.0,85,0.00,,,0.50,,2013-01-09 20:02:00,
2013-01-09 12:12:00,46.0,42.0,30.00,West,263,2.0,4.0,85,0.00,,,0.50,,2013-01-09 20:12:00,
2013-01-09 12:22:00,46.0,41.0,29.99,West,267,1.0,5.0,83,0.00,,,0.50,,2013-01-09 20:22:00,
2013-01-09 12:33:00,43.0,39.0,30.00,WNW,292,1.0,10.0,85,0.04,,,0.54,,2013-01-09 20:33:00,
2013-01-09 12:42:00,43.0,39.0,30.00,WNW,292,1.0,10.0,85,0.04,,,0.54,,2013-01-09 20:42:00,
2013-01-09 12:52:00,44.0,41.0,29.99,West,280,0.0,5.0,88,0.04,,,0.54,,2013-01-09 20:52:00,
2013-01-09 13:02:00,45.0,42.0,29.99,WNW,283,3.0,6.0,88,0.04,,,0.54,,2013-01-09 21:02:00,
2013-01-09 13:12:00,45.0,42.0,29.99,WNW,283,3.0,6.0,88,0.04,,,0.54,,2013-01-09 21:12:00,
2013-01-09 13:22:00,46.0,42.0,29.99,West,281,3.0,7.0,87,0.04,,,0.54,,2013-01-09 21:22:00,
2013-01-09 13:33:00,47.0,41.0,29.99,WSW,257,7.0,12.0,80,0.00,,,0.53,,2013-01-09 21:33:00,
2013-01-09 13:42:00,47.0,41.0,29.99,WSW,257,7.0,12.0,80,0.00,,,0.53,,2013-01-09 21:42:00,
2013-01-09 13:52:00,46.0,39.0,29.99,West,272,6.0,11.0,76,0.00,,,0.53,,2013-01-09 21:52:00,
2013-01-09 14:03:00,48.0,41.0,30.00,WNW,292,6.0,12.0,77,0.00,,,0.53,,2013-01-09 22:03:00,
2013-01-09 14:12:00,48.0,41.0,30.00,WNW,292,6.0,12.0,77,0.00,,,0.53,,2013-01-09 22:12:00,
2013-01-09 14:22:00,48.0,41.0,30.00,West,263,6.0,9.0,77,0.00,,,0.53,,2013-01-09 22:22:00,
2013-01-09 14:32:00,47.0,40.0,30.00,West,270,4.0,8.0,77,0.00,,,0.53,,2013-01-09 22:32:00,
2013-01-09 14:42:00,47.0,40.0,30.00,West,270,4.0,8.0,77,0.00,,,0.53,,2013-01-09 22:42:00,
2013-01-09 14:50:00,48.0,40.0,30.01,West,275,7.0,11.0,73,0.00,,,0.53,,2013-01-09 22:50:00,
2013-01-09 14:52:00,46.0,39.0,30.01,West,263,11.0,19.0,77,0.00,,,0.53,,2013-01-09 22:52:00,
2013-01-09 15:02:00,46.0,39.0,30.01,West,263,11.0,19.0,77,0.00,,,0.53,,2013-01-09 23:02:00,
2013-01-09 15:12:00,46.0,39.0,30.01,West,263,11.0,19.0,77,0.00,,,0.53,,2013-01-09 23:12:00,
2013-01-09 15:22:00,48.0,40.0,30.01,West,275,7.0,11.0,73,0.00,,,0.53,,2013-01-09 23:22:00,
2013-01-09 15:32:00,48.0,40.0,30.01,West,275,7.0,11.0,73,0.00,,,0.53,,2013-01-09 23:32:00,
2013-01-09 15:42:00,48.0,40.0,30.01,West,275,7.0,11.0,73,0.00,,,0.53,,2013-01-09 23:42:00,
2013-01-09 16:03:00,47.0,39.0,30.01,West,281,5.0,10.0,74,0.00,,,0.53,,2013-01-10 00:03:00,
2013-01-09 16:12:00,47.0,39.0,30.01,West,281,5.0,10.0,74,0.00,,,0.53,,2013-01-10 00:12:00,
2013-01-09 16:22:00,44.0,37.0,30.01,WNW,294,2.0,8.0,75,0.02,,,0.55,,2013-01-10 00:22:00,
2013-01-09 16:32:00,44.0,39.0,30.01,West,281,3.0,6.0,81,0.02,,,0.55,,2013-01-10 00:32:00,
2013-01-09 16:42:00,44.0,39.0,30.01,West,281,3.0,6.0,81,0.02,,,0.55,,2013-01-10 00:42:00,
2013-01-09 16:52:00,44.0,39.0,30.01,West,275,5.0,8.0,81,0.02,,,0.55,,2013-01-10 00:52:00,
2013-01-09 17:02:00,45.0,39.0,30.01,WNW,292,5.0,10.0,80,0.02,,,0.55,,2013-01-10 01:02:00,
2013-01-09 17:12:00,45.0,39.0,30.01,WNW,292,5.0,10.0,80,0.02,,,0.55,,2013-01-10 01:12:00,
2013-01-09 17:22:00,44.0,38.0,30.01,WNW,302,4.0,10.0,79,0.00,,,0.55,,2013-01-10 01:22:00,
2013-01-09 17:32:00,44.0,38.0,30.01,West,278,5.0,9.0,79,0.00,,,0.55,,2013-01-10 01:32:00,
2013-01-09 17:42:00,44.0,38.0,30.01,West,278,5.0,9.0,79,0.00,,,0.55,,2013-01-10 01:42:00,
2013-01-09 17:52:00,45.0,39.0,30.01,WNW,288,4.0,9.0,79,0.00,,,0.55,,2013-01-10 01:52:00,
2013-01-09 18:02:00,45.0,39.0,30.01,WNW,289,7.0,13.0,79,0.00,,,0.55,,2013-01-10 02:02:00,
2013-01-09 18:12:00,45.0,39.0,30.01,WNW,289,7.0,13.0,79,0.00,,,0.55,,2013-01-10 02:12:00,
2013-01-09 18:22:00,44.0,38.0,30.01,West,274,3.0,7.0,78,0.00,,,0.55,,2013-01-10 02:22:00,
2013-01-09 18:32:00,43.0,37.0,30.01,NE,38,0.0,2.0,79,0.00,,,0.55,,2013-01-10 02:32:00,
2013-01-09 18:42:00,43.0,37.0,30.01,NE,38,0.0,2.0,79,0.00,,,0.55,,2013-01-10 02:42:00,
2013-01-09 18:52:00,43.0,37.0,30.01,NE,38,0.0,2.0,79,0.00,,,0.55,,2013-01-10 02:52:00,
2013-01-09 19:02:00,44.0,39.0,30.01,West,276,4.0,8.0,81,0.00,,,0.55,,2013-01-10 03:02:00,
2013-01-09 19:12:00,44.0,39.0,30.01,West,276,4.0,8.0,81,0.00,,,0.55,,2013-01-10 03:12:00,
2013-01-09 19:22:00,44.0,38.0,30.02,WNW,283,3.0,7.0,80,0.00,,,0.55,,2013-01-10 03:22:00,
2013-01-09 19:32:00,44.0,38.0,30.02,West,278,4.0,7.0,80,0.00,,,0.55,,2013-01-10 03:32:00,
2013-01-09 19:42:00,44.0,38.0,30.02,West,278,4.0,7.0,80,0.00,,,0.55,,2013-01-10 03:42:00,
2013-01-09 19:52:00,43.0,37.0,30.02,West,278,4.0,6.0,80,0.00,,,0.55,,2013-01-10 03:52:00,
2013-01-09 20:02:00,43.0,37.0,30.02,West,278,4.0,6.0,80,0.00,,,0.55,,2013-01-10 04:02:00,
2013-01-09 20:12:00,43.0,37.0,30.02,West,278,4.0,6.0,80,0.00,,,0.55,,2013-01-10 04:12:00,
2013-01-09 20:22:00,43.0,37.0,30.02,WSW,257,3.0,8.0,79,0.00,,,0.55,,2013-01-10 04:22:00,
2013-01-09 20:32:00,44.0,38.0,30.03,West,278,3.0,5.0,80,0.00,,,0.55,,2013-01-10 04:32:00,
2013-01-09 20:42:00,44.0,38.0,30.03,West,278,3.0,5.0,80,0.00,,,0.55,,2013-01-10 04:42:00,
2013-01-09 20:52:00,44.0,38.0,30.03,West,281,3.0,6.0,80,0.00,,,0.55,,2013-01-10 04:52:00,
2013-01-09 21:03:00,43.0,38.0,30.03,West,279,3.0,12.0,81,0.02,,,0.56,,2013-01-10 05:03:00,
2013-01-09 21:12:00,43.0,38.0,30.03,West,279,3.0,12.0,81,0.02,,,0.56,,2013-01-10 05:12:00,
2013-01-09 21:22:00,43.0,38.0,30.03,West,279,5.0,10.0,81,0.02,,,0.56,,2013-01-10 05:22:00,
2013-01-09 21:32:00,43.0,38.0,30.03,East,82,0.0,3.0,81,0.02,,,0.56,,2013-01-10 05:32:00,
2013-01-09 21:42:00,43.0,38.0,30.03,East,82,0.0,3.0,81,0.02,,,0.56,,2013-01-10 05:42:00,
2013-01-09 21:52:00,41.0,36.0,30.03,East,82,0.0,2.0,82,0.02,,,0.56,,2013-01-10 05:52:00,
2013-01-09 22:02:00,41.0,36.0,30.03,East,82,0.0,2.0,82,0.02,,,0.56,,2013-01-10 06:02:00,
2013-01-09 22:11:00,41.0,36.0,30.03,East,82,0.0,2.0,82,0.02,,,0.56,,2013-01-10 06:11:00,
2013-01-09 22:22:00,40.0,36.0,30.04,ENE,76,2.0,5.0,86,0.02,,,0.59,,2013-01-10 06:22:00,
2013-01-09 22:32:00,39.0,36.0,30.03,NE,55,2.0,5.0,88,0.03,,,0.59,,2013-01-10 06:32:00,
2013-01-09 22:42:00,39.0,36.0,30.03,NE,55,2.0,5.0,88,0.03,,,0.59,,2013-01-10 06:42:00,
2013-01-09 22:52:00,39.0,36.0,30.04,ENE,70,4.0,9.0,89,0.03,,,0.59,,2013-01-10 06:52:00,
2013-01-09 23:02:00,39.0,36.0,30.04,NE,49,4.0,8.0,90,0.03,,,0.59,,2013-01-10 07:02:00,
2013-01-09 23:11:00,39.0,36.0,30.04,NE,49,4.0,8.0,90,0.03,,,0.59,,2013-01-10 07:11:00,
2013-01-09 23:22:00,39.0,37.0,30.04,NE,40,4.0,7.0,91,0.02,,,0.60,,2013-01-10 07:22:00,
2013-01-09 23:32:00,38.0,36.0,30.05,NE,56,3.0,9.0,91,0.02,,,0.60,,2013-01-10 07:32:00,
2013-01-09 23:42:00,38.0,36.0,30.05,NE,56,3.0,9.0,91,0.02,,,0.60,,2013-01-10 07:42:00,
2013-01-09 23:52:00,38.0,36.0,30.04,NE,41,4.0,8.0,91,0.02,,,0.60,,2013-01-10 07:52:00,